Time;durP1;ratioP1;P1;durP2;ratioP2;P2;SDS_P1;SDS_P2;PMS_P1;PMS_P2;Temp;Humidity;BMP_temperature;BMP_pressure;BME280_temperature;BME280_humidity;BME280_pressure;Samples;Min_cycle;Max_cycle;Signal;HPM_P1;HPM_P2
2021/09/28 00:04:54;;;;;;;10.52;2.05;;;;;;;14.96;92.38;101854.94;10165939;28;20108;-68
2021/09/28 00:09:50;;;;;;;11.27;2.50;;;;;;;15.00;92.35;101856.75;10165023;28;20140;-68
2021/09/28 00:14:47;;;;;;;6.18;2.03;;;;;;;14.84;93.00;101863.81;10157211;28;20070;-67
2021/09/28 00:19:43;;;;;;;8.10;2.30;;;;;;;14.85;93.58;101877.28;10163369;28;20424;-67
2021/09/28 00:24:40;;;;;;;9.88;2.47;;;;;;;14.84;93.56;101870.13;10168902;28;20046;-67
2021/09/28 00:29:36;;;;;;;8.07;2.42;;;;;;;14.81;93.86;101876.28;10146717;28;20073;-68
2021/09/28 00:34:34;;;;;;;10.82;3.70;;;;;;;14.68;93.84;101871.69;10161865;28;20054;-68
2021/09/28 00:39:30;;;;;;;11.75;3.70;;;;;;;14.67;94.03;101873.66;10167331;28;20096;-68
2021/09/28 00:44:46;;;;;;;9.40;3.10;;;;;;;14.62;94.33;101878.47;10176467;28;20080;-68
2021/09/28 00:49:47;;;;;;;12.65;3.65;;;;;;;14.57;94.57;101876.66;10153546;28;20066;-67
2021/09/28 00:54:44;;;;;;;12.57;4.80;;;;;;;14.53;94.74;101881.97;10167140;28;20042;-68
2021/09/28 00:59:41;;;;;;;13.15;4.85;;;;;;;14.45;95.66;101896.47;10175056;28;20492;-67
2021/09/28 01:04:38;;;;;;;11.25;4.32;;;;;;;14.48;94.97;101901.38;10163238;28;20046;-69
2021/09/28 01:09:36;;;;;;;14.88;5.03;;;;;;;14.39;94.97;101902.44;10181326;28;20397;-68
2021/09/28 01:14:33;;;;;;;10.40;4.45;;;;;;;14.37;94.94;101922.03;10169254;28;20084;-67
2021/09/28 01:19:30;;;;;;;14.52;5.15;;;;;;;14.37;95.03;101927.53;10185474;28;20050;-67
2021/09/28 01:24:26;;;;;;;10.82;4.57;;;;;;;14.36;95.14;101931.38;10175373;28;20116;-69
2021/09/28 01:29:23;;;;;;;11.07;4.60;;;;;;;14.38;95.46;101934.63;10166909;28;20216;-69
2021/09/28 01:34:20;;;;;;;16.60;4.60;;;;;;;14.38;95.32;101945.66;10178379;28;20435;-69
2021/09/28 01:39:19;;;;;;;14.25;5.07;;;;;;;14.42;95.16;101948.59;10174821;28;20043;-69
2021/09/28 01:44:18;;;;;;;11.68;5.28;;;;;;;14.43;94.76;101947.44;10164453;28;20038;-69
2021/09/28 01:49:18;;;;;;;17.65;5.22;;;;;;;14.39;95.37;101941.78;10169624;28;20046;-69
2021/09/28 01:54:15;;;;;;;12.40;5.65;;;;;;;14.34;95.12;101944.63;10156349;28;20109;-69
2021/09/28 01:59:11;;;;;;;16.83;5.30;;;;;;;14.29;94.75;101936.53;10170447;28;20134;-69
2021/09/28 02:04:08;;;;;;;16.10;5.93;;;;;;;14.23;94.77;101943.28;10170812;28;20047;-69
2021/09/28 02:09:05;;;;;;;15.57;5.70;;;;;;;14.22;94.97;101941.66;10166376;28;20100;-68
2021/09/28 02:14:03;;;;;;;16.23;5.80;;;;;;;14.15;94.76;101946.78;10175225;28;20149;-69
2021/09/28 02:19:00;;;;;;;13.05;5.60;;;;;;;14.17;94.41;101950.03;10167989;28;20516;-68
2021/09/28 02:23:56;;;;;;;15.55;6.35;;;;;;;14.12;94.76;101958.41;10163589;28;20512;-68
2021/09/28 02:28:53;;;;;;;14.55;6.32;;;;;;;14.00;95.05;101959.78;10168890;28;20140;-68
2021/09/28 02:33:50;;;;;;;11.90;5.38;;;;;;;14.01;94.74;101964.13;10155392;28;20508;-69
2021/09/28 02:38:46;;;;;;;13.10;4.32;;;;;;;13.99;94.77;101965.56;10168047;28;20096;-69
2021/09/28 02:43:43;;;;;;;15.80;5.60;;;;;;;13.89;95.29;101966.63;10161982;28;20101;-68
2021/09/28 02:48:39;;;;;;;12.40;5.07;;;;;;;13.97;95.40;101967.81;10160616;28;20081;-69
2021/09/28 02:53:36;;;;;;;10.93;4.22;;;;;;;13.99;94.61;101966.38;10171375;28;20058;-68
2021/09/28 02:58:32;;;;;;;18.15;6.03;;;;;;;13.94;94.58;101973.94;10171398;28;20086;-69
2021/09/28 03:03:29;;;;;;;14.93;4.55;;;;;;;13.95;94.62;101976.41;10159904;28;20531;-69
2021/09/28 03:08:25;;;;;;;17.67;5.97;;;;;;;13.87;94.68;101985.38;10165603;28;20507;-69
2021/09/28 03:13:22;;;;;;;13.48;5.25;;;;;;;13.88;94.32;101981.50;10167511;28;20050;-68
2021/09/28 03:18:18;;;;;;;16.23;4.95;;;;;;;13.86;94.17;101992.00;10162273;28;20045;-68
2021/09/28 03:23:15;;;;;;;12.63;5.38;;;;;;;13.85;94.63;101993.09;10158569;28;20074;-68
2021/09/28 03:28:11;;;;;;;19.65;6.40;;;;;;;13.79;94.24;101995.16;10154204;28;20465;-68
2021/09/28 03:33:08;;;;;;;12.07;6.25;;;;;;;13.75;94.54;101998.84;10155385;28;20085;-71
2021/09/28 03:38:04;;;;;;;15.77;7.90;;;;;;;13.66;95.53;102002.28;10163443;28;20510;-71
2021/09/28 03:43:01;;;;;;;16.55;7.25;;;;;;;13.72;95.40;101999.47;10158624;28;20046;-71
2021/09/28 03:47:58;;;;;;;19.23;7.60;;;;;;;13.73;94.82;102006.56;10126628;28;20046;-71
2021/09/28 03:52:55;;;;;;;16.98;7.53;;;;;;;13.68;94.73;102016.56;10146665;28;20129;-71
2021/09/28 03:57:52;;;;;;;19.58;8.25;;;;;;;13.64;94.39;102015.53;10132139;28;20089;-71
2021/09/28 04:02:49;;;;;;;21.10;7.80;;;;;;;13.62;94.56;102033.44;10143255;28;20101;-71
2021/09/28 04:07:45;;;;;;;18.90;9.23;;;;;;;13.58;94.47;102036.00;10138876;28;20066;-71
2021/09/28 04:12:42;;;;;;;26.83;9.80;;;;;;;13.55;94.27;102038.53;10133739;28;20049;-72
2021/09/28 04:17:38;;;;;;;15.10;9.27;;;;;;;13.54;94.35;102043.22;10155964;28;20633;-71
2021/09/28 04:22:35;;;;;;;24.25;10.27;;;;;;;13.56;94.14;102052.00;10157351;28;20108;-72
2021/09/28 04:27:35;;;;;;;19.83;8.93;;;;;;;13.56;94.01;102057.47;10153751;28;20451;-72
2021/09/28 04:32:33;;;;;;;13.40;7.80;;;;;;;13.56;94.07;102056.69;10153999;28;20594;-72
2021/09/28 04:37:30;;;;;;;18.10;8.75;;;;;;;13.54;94.16;102059.72;10150878;28;20047;-72
2021/09/28 04:42:26;;;;;;;14.77;6.68;;;;;;;13.52;93.88;102072.94;10153104;28;20500;-72
2021/09/28 04:47:23;;;;;;;13.88;7.57;;;;;;;13.52;93.82;102083.94;10157373;28;20133;-72
2021/09/28 04:52:19;;;;;;;14.00;5.57;;;;;;;13.47;93.59;102092.28;10166151;28;20116;-72
2021/09/28 04:57:16;;;;;;;13.77;5.70;;;;;;;13.40;93.65;102097.38;10159023;28;20077;-72
2021/09/28 05:02:12;;;;;;;17.02;5.75;;;;;;;13.45;93.59;102105.50;10160839;28;20077;-72
2021/09/28 05:07:09;;;;;;;16.63;5.40;;;;;;;13.35;93.58;102105.72;10157183;28;20048;-73
2021/09/28 05:12:06;;;;;;;11.05;5.10;;;;;;;13.33;92.84;102113.44;10158266;28;20129;-72
2021/09/28 05:17:03;;;;;;;15.77;5.63;;;;;;;13.25;92.81;102112.97;10153175;28;20453;-72
2021/09/28 05:21:59;;;;;;;10.75;4.60;;;;;;;13.20;92.72;102128.72;10153509;28;20485;-72
2021/09/28 05:26:57;;;;;;;16.73;4.72;;;;;;;13.16;92.91;102134.00;10153092;28;20038;-72
2021/09/28 05:31:53;;;;;;;15.52;4.70;;;;;;;13.07;92.79;102133.06;10152722;28;20464;-71
2021/09/28 05:36:52;;;;;;;11.80;4.53;;;;;;;13.09;93.14;102135.50;10157729;28;20492;-72
2021/09/28 05:41:48;;;;;;;14.30;3.72;;;;;;;13.07;92.80;102137.75;10167175;28;20070;-72
2021/09/28 05:46:45;;;;;;;16.83;4.38;;;;;;;12.99;92.47;102141.97;10165098;28;20123;-72
2021/09/28 05:51:52;;;;;;;12.88;3.85;;;;;;;12.95;93.01;102151.91;10161272;28;20389;-71
2021/09/28 05:56:51;;;;;;;11.07;4.20;;;;;;;12.92;92.41;102152.53;10168435;28;20479;-72
2021/09/28 06:01:49;;;;;;;10.65;3.50;;;;;;;13.01;92.61;102161.72;10159261;28;20050;-72
2021/09/28 06:06:45;;;;;;;12.32;3.13;;;;;;;12.98;92.15;102167.81;10170309;28;20050;-72
2021/09/28 06:11:43;;;;;;;17.38;3.83;;;;;;;13.01;91.92;102173.50;10173184;28;20478;-72
2021/09/28 06:16:40;;;;;;;9.88;3.10;;;;;;;12.99;91.72;102181.22;10173583;28;20193;-72
2021/09/28 06:21:36;;;;;;;11.27;2.97;;;;;;;13.01;91.24;102183.69;10159988;28;20160;-72
2021/09/28 06:26:33;;;;;;;17.10;3.60;;;;;;;12.97;90.36;102179.88;10148080;28;20105;-72
2021/09/28 06:31:29;;;;;;;12.73;3.30;;;;;;;13.05;90.55;102196.50;10170966;28;20074;-72
2021/09/28 06:36:26;;;;;;;11.20;3.35;;;;;;;13.09;90.84;102201.41;10156110;28;20092;-72
2021/09/28 06:41:26;;;;;;;10.90;3.15;;;;;;;13.06;89.69;102211.06;10176954;28;20050;-72
2021/09/28 06:46:23;;;;;;;10.40;2.72;;;;;;;13.07;90.32;102212.69;10166797;28;20095;-72
2021/09/28 06:51:19;;;;;;;9.13;3.10;;;;;;;13.10;90.08;102217.59;10152013;28;20161;-71
2021/09/28 06:56:18;;;;;;;9.40;2.40;;;;;;;13.09;90.31;102218.72;10172855;28;20137;-71
2021/09/28 07:01:15;;;;;;;8.07;3.33;;;;;;;13.06;90.19;102216.53;10162198;28;20046;-71
2021/09/28 07:06:12;;;;;;;10.05;2.72;;;;;;;12.99;89.86;102216.91;10159980;28;20108;-71
2021/09/28 07:11:08;;;;;;;11.43;2.85;;;;;;;13.05;90.28;102221.22;10168290;28;20046;-71
2021/09/28 07:16:05;;;;;;;10.07;2.78;;;;;;;13.00;89.49;102220.50;10173647;28;20078;-71
2021/09/28 07:21:01;;;;;;;13.00;3.28;;;;;;;12.98;89.58;102229.03;10161640;28;20100;-71
2021/09/28 07:25:59;;;;;;;11.27;3.03;;;;;;;12.98;89.64;102228.22;10171056;28;20455;-71
2021/09/28 07:30:55;;;;;;;12.30;3.35;;;;;;;13.00;91.02;102236.97;10172428;28;20582;-71
2021/09/28 07:35:52;;;;;;;9.32;2.83;;;;;;;13.08;91.14;102239.03;10157936;28;20065;-71
2021/09/28 07:40:50;;;;;;;11.70;2.97;;;;;;;13.24;91.02;102237.69;10167243;28;20081;-72
2021/09/28 07:45:46;;;;;;;9.95;2.92;;;;;;;13.37;91.04;102238.09;10165144;28;20096;-72
2021/09/28 07:50:43;;;;;;;10.32;2.80;;;;;;;13.45;90.90;102240.13;10160275;28;20133;-71
2021/09/28 07:55:42;;;;;;;7.30;2.13;;;;;;;13.45;89.33;102242.88;10133223;28;20042;-71
2021/09/28 08:00:40;;;;;;;9.30;2.65;;;;;;;13.59;89.11;102249.22;10153787;28;20105;-71
2021/09/28 08:05:37;;;;;;;9.85;2.97;;;;;;;13.68;89.29;102241.13;10156319;28;20051;-71
2021/09/28 08:10:33;;;;;;;11.70;2.67;;;;;;;13.72;88.67;102241.34;10158314;28;20046;-71
2021/09/28 08:15:30;;;;;;;7.70;2.00;;;;;;;13.75;85.56;102235.22;10155463;28;20047;-72
2021/09/28 08:20:28;;;;;;;12.70;2.15;;;;;;;13.86;85.45;102239.44;10155273;28;20081;-72
2021/09/28 08:25:34;;;;;;;8.55;1.83;;;;;;;13.93;81.88;102237.09;10165437;28;20050;-72
2021/09/28 08:30:31;;;;;;;7.72;1.85;;;;;;;14.00;82.65;102236.69;10152460;28;20050;-71
2021/09/28 08:35:27;;;;;;;7.70;2.00;;;;;;;14.12;82.21;102244.44;10154159;28;20046;-71
2021/09/28 08:40:24;;;;;;;5.95;1.73;;;;;;;14.26;82.84;102245.25;10162307;28;20645;-71
2021/09/28 08:45:21;;;;;;;9.73;2.15;;;;;;;14.43;82.21;102239.94;10162225;28;20074;-72
2021/09/28 08:50:20;;;;;;;6.00;1.55;;;;;;;14.63;82.87;102249.75;10163096;28;20145;-72
2021/09/28 08:55:17;;;;;;;7.45;1.73;;;;;;;14.74;80.66;102250.34;10157051;28;20104;-72
2021/09/28 09:00:16;;;;;;;5.70;1.77;;;;;;;14.78;79.81;102250.53;10140290;28;20050;-72
2021/09/28 09:05:16;;;;;;;8.02;1.52;;;;;;;14.87;78.95;102249.50;10156450;28;20119;-71
2021/09/28 09:10:13;;;;;;;5.88;1.25;;;;;;;14.91;77.58;102255.22;10161280;28;20132;-71
2021/09/28 09:15:15;;;;;;;6.68;1.30;;;;;;;14.97;75.24;102255.91;10168610;28;20412;-71
2021/09/28 09:20:26;;;;;;;8.13;1.35;;;;;;;14.99;76.19;102242.63;10168020;28;20046;-71
2021/09/28 09:25:24;;;;;;;7.10;1.25;;;;;;;15.02;73.28;102239.28;10163616;28;20405;-72
2021/09/28 09:30:22;;;;;;;8.18;1.50;;;;;;;15.12;75.22;102245.34;10154477;28;20096;-71
2021/09/28 09:35:36;;;;;;;7.35;1.20;;;;;;;15.21;71.67;102248.19;10167005;28;20679;-71
2021/09/28 09:40:54;;;;;;;5.90;0.80;;;;;;;15.27;69.62;102241.44;10156728;28;20437;-71
2021/09/28 09:45:50;;;;;;;5.50;1.17;;;;;;;15.38;70.45;102246.69;10156489;28;20518;-72
2021/09/28 09:50:56;;;;;;;3.92;1.20;;;;;;;15.47;68.53;102244.78;10159309;28;20105;-73
2021/09/28 09:55:52;;;;;;;5.60;0.80;;;;;;;15.50;68.72;102239.47;10157517;28;20132;-72
2021/09/28 10:00:52;;;;;;;5.35;0.77;;;;;;;15.60;67.58;102243.09;10165958;28;20508;-71
2021/09/28 10:05:49;;;;;;;6.55;0.90;;;;;;;15.66;68.86;102231.59;10155612;28;20054;-71
2021/09/28 10:10:54;;;;;;;10.05;0.93;;;;;;;15.74;66.67;102233.66;10172013;28;20100;-72
2021/09/28 10:16:30;;;;;;;8.52;1.02;;;;;;;15.81;65.54;102232.38;10166402;28;20046;-73
2021/09/28 10:21:37;;;;;;;5.95;0.70;;;;;;;15.82;62.63;102237.56;10159375;28;20050;-72
2021/09/28 10:26:33;;;;;;;7.55;1.38;;;;;;;15.95;64.82;102233.09;10156455;28;20077;-71
2021/09/28 10:31:31;;;;;;;7.93;1.00;;;;;;;16.00;63.64;102224.69;10166551;28;20043;-71
2021/09/28 10:36:52;;;;;;;5.63;1.10;;;;;;;15.97;62.92;102228.09;10156482;28;20512;-71
2021/09/28 10:41:50;;;;;;;3.83;0.80;;;;;;;15.93;63.49;102224.31;10163005;28;20041;-72
2021/09/28 10:46:46;;;;;;;6.80;0.80;;;;;;;16.05;63.21;102221.78;10159809;28;20098;-73
2021/09/28 10:51:43;;;;;;;6.55;0.85;;;;;;;16.02;60.76;102222.41;10169097;28;20092;-72
2021/09/28 10:56:52;;;;;;;4.85;0.40;;;;;;;15.99;58.55;102223.88;10157744;28;20531;-72
2021/09/28 11:02:08;;;;;;;4.55;0.75;;;;;;;16.14;56.56;102224.56;10165632;28;20065;-73
2021/09/28 11:07:09;;;;;;;2.80;0.57;;;;;;;16.14;57.32;102214.34;10167386;28;20042;-73
2021/09/28 11:12:07;;;;;;;2.17;0.60;;;;;;;16.36;57.53;102204.34;10165391;28;20038;-72
2021/09/28 11:17:11;;;;;;;4.13;0.70;;;;;;;16.47;56.14;102211.19;10170739;28;20038;-71
2021/09/28 11:22:15;;;;;;;4.88;0.80;;;;;;;16.56;54.39;102198.22;10158269;28;20054;-72
2021/09/28 11:27:12;;;;;;;4.13;0.63;;;;;;;16.44;56.28;102200.78;10160217;28;20069;-72
2021/09/28 11:32:10;;;;;;;1.67;0.40;;;;;;;16.58;56.43;102201.47;10171953;28;20061;-70
2021/09/28 11:37:07;;;;;;;4.05;0.80;;;;;;;16.90;58.19;102182.84;10161132;28;20038;-71
2021/09/28 11:42:05;;;;;;;3.55;0.60;;;;;;;17.17;56.21;102194.66;10169340;28;20050;-70
2021/09/28 11:47:02;;;;;;;7.13;0.80;;;;;;;17.53;55.15;102187.97;10168304;28;20567;-70
2021/09/28 11:51:58;;;;;;;6.07;0.85;;;;;;;17.88;55.36;102181.19;10165377;28;20674;-71
2021/09/28 11:56:59;;;;;;;3.70;0.65;;;;;;;18.25;54.14;102173.16;10150459;28;20043;-70
2021/09/28 12:01:58;;;;;;;4.38;0.90;;;;;;;18.61;53.09;102190.38;10162834;28;20136;-70
2021/09/28 12:07:21;;;;;;;2.83;0.90;;;;;;;18.58;51.92;102175.22;10161367;28;20097;-70
2021/09/28 12:12:25;;;;;;;8.38;1.00;;;;;;;18.91;52.38;102182.81;10176077;28;20472;-70
2021/09/28 12:17:32;;;;;;;4.05;0.60;;;;;;;18.04;53.46;102183.41;10167793;28;20568;-70
2021/09/28 12:22:41;;;;;;;7.05;0.90;;;;;;;17.81;53.48;102180.88;10163093;28;20078;-70
2021/09/28 12:27:51;;;;;;;7.40;0.63;;;;;;;17.67;53.55;102177.50;10156457;28;20068;-70
2021/09/28 12:32:49;;;;;;;7.25;1.13;;;;;;;17.53;54.44;102174.13;10157488;28;20112;-70
2021/09/28 12:37:50;;;;;;;6.88;1.13;;;;;;;17.56;55.60;102179.00;10152629;28;20042;-69
2021/09/28 12:43:06;;;;;;;3.03;0.82;;;;;;;17.48;56.69;102161.28;10138362;28;20045;-70
2021/09/28 12:48:03;;;;;;;6.05;0.80;;;;;;;18.35;54.95;102160.09;10160817;28;20093;-70
2021/09/28 12:53:08;;;;;;;5.43;0.65;;;;;;;19.94;50.91;102152.34;10154956;28;20090;-70
2021/09/28 12:58:15;;;;;;;4.60;0.77;;;;;;;21.26;47.91;102156.63;10148893;28;20564;-70
2021/09/28 13:03:20;;;;;;;6.20;0.82;;;;;;;22.08;41.73;102160.72;10152188;28;20046;-71
2021/09/28 13:08:21;;;;;;;3.13;0.80;;;;;;;21.33;44.99;102156.84;10161589;28;20528;-70
2021/09/28 13:13:19;;;;;;;4.70;0.82;;;;;;;20.58;45.78;102158.31;10172668;28;20432;-70
2021/09/28 13:18:18;;;;;;;4.18;0.70;;;;;;;19.87;46.76;102154.91;10162640;28;20074;-70
2021/09/28 13:23:15;;;;;;;4.53;0.65;;;;;;;19.36;46.94;102148.81;10165366;28;20102;-70
2021/09/28 13:28:13;;;;;;;6.60;1.00;;;;;;;19.12;48.24;102155.06;10166848;28;20038;-71
2021/09/28 13:33:10;;;;;;;3.20;0.70;;;;;;;18.98;49.01;102152.59;10161004;28;20050;-71
2021/09/28 13:38:07;;;;;;;5.22;0.85;;;;;;;18.95;52.47;102144.97;10166866;28;20054;-71
2021/09/28 13:43:04;;;;;;;3.20;0.82;;;;;;;18.85;52.46;102145.41;10163244;28;20125;-70
2021/09/28 13:48:00;;;;;;;3.22;0.50;;;;;;;18.69;52.20;102143.22;10158712;28;20073;-71
2021/09/28 13:52:57;;;;;;;4.40;0.80;;;;;;;18.61;53.21;102146.88;10179802;28;20038;-70
2021/09/28 13:57:53;;;;;;;4.10;1.00;;;;;;;18.64;52.59;102145.38;10162915;28;20133;-70
2021/09/28 14:02:50;;;;;;;3.78;0.68;;;;;;;18.85;52.65;102145.41;10160420;28;20046;-70
2021/09/28 14:07:47;;;;;;;3.55;0.75;;;;;;;18.74;52.72;102135.84;10161385;28;20416;-70
2021/09/28 14:12:43;;;;;;;3.70;0.80;;;;;;;18.50;53.66;102145.66;10168132;28;20104;-70
2021/09/28 14:17:40;;;;;;;4.20;0.70;;;;;;;18.37;53.99;102138.41;10146451;28;20531;-71
2021/09/28 14:22:37;;;;;;;5.07;0.90;;;;;;;18.26;52.97;102133.28;10170305;28;20053;-70
2021/09/28 14:27:33;;;;;;;4.88;0.95;;;;;;;18.19;53.81;102129.41;10158238;28;20054;-70
2021/09/28 14:32:31;;;;;;;7.63;1.50;;;;;;;18.13;56.77;102131.56;10158130;28;20048;-71
2021/09/28 14:37:27;;;;;;;5.40;1.42;;;;;;;18.09;60.23;102123.13;10157336;28;20425;-70
2021/09/28 14:42:24;;;;;;;5.50;0.70;;;;;;;18.09;60.77;102119.53;10157692;28;20105;-71
2021/09/28 14:47:20;;;;;;;3.22;1.00;;;;;;;18.22;61.33;102112.94;10154658;28;20050;-72
2021/09/28 14:52:17;;;;;;;4.00;0.77;;;;;;;18.35;60.11;102115.78;10140645;28;20125;-71
2021/09/28 14:57:14;;;;;;;5.05;0.70;;;;;;;18.47;55.00;102111.16;10156205;28;20046;-70
2021/09/28 15:02:10;;;;;;;6.28;1.23;;;;;;;18.67;57.35;102111.47;10161249;28;20124;-71
2021/09/28 15:07:07;;;;;;;5.85;1.42;;;;;;;18.61;58.56;102108.09;10161817;28;20101;-70
2021/09/28 15:12:06;;;;;;;5.38;0.90;;;;;;;18.48;55.84;102104.44;10174811;28;20112;-70
2021/09/28 15:17:06;;;;;;;7.82;1.27;;;;;;;18.37;55.63;102105.19;10168909;28;20058;-70
2021/09/28 15:22:03;;;;;;;2.55;0.65;;;;;;;18.33;58.26;102101.47;10156620;28;20491;-70
2021/09/28 15:27:00;;;;;;;4.95;1.10;;;;;;;18.39;55.70;102105.66;10173604;28;20073;-71
2021/09/28 15:32:08;;;;;;;5.47;1.20;;;;;;;18.44;58.24;102108.22;10160562;28;20050;-70
2021/09/28 15:37:04;;;;;;;4.95;0.85;;;;;;;18.42;56.18;102100.25;10148423;28;20066;-71
2021/09/28 15:42:01;;;;;;;4.80;0.98;;;;;;;18.44;57.48;102097.94;10167598;28;20412;-70
2021/09/28 15:46:58;;;;;;;5.63;0.95;;;;;;;18.47;58.73;102102.00;10167509;28;20092;-71
2021/09/28 15:51:55;;;;;;;5.22;1.10;;;;;;;18.34;59.49;102094.78;10162317;28;20042;-70
2021/09/28 15:56:51;;;;;;;2.80;0.73;;;;;;;18.19;61.86;102094.22;10155589;28;20124;-72
2021/09/28 16:01:49;;;;;;;4.43;1.00;;;;;;;18.07;62.67;102094.97;10172908;28;20134;-71
2021/09/28 16:06:46;;;;;;;5.30;1.15;;;;;;;17.95;61.80;102096.84;10180749;28;20038;-71
2021/09/28 16:11:43;;;;;;;6.05;1.20;;;;;;;17.80;63.62;102100.94;10137350;28;20510;-72
2021/09/28 16:16:40;;;;;;;5.05;0.80;;;;;;;17.67;65.33;102097.28;10155357;28;20116;-70
2021/09/28 16:21:37;;;;;;;8.15;1.52;;;;;;;17.54;66.69;102095.53;10162277;28;20603;-69
2021/09/28 16:26:34;;;;;;;3.88;1.05;;;;;;;17.44;66.76;102094.78;10162920;28;20520;-70
2021/09/28 16:31:31;;;;;;;5.15;1.80;;;;;;;17.25;66.19;102091.59;10164478;28;20074;-70
2021/09/28 16:36:27;;;;;;;6.22;2.10;;;;;;;17.16;66.98;102093.56;10158305;28;20049;-70
2021/09/28 16:41:24;;;;;;;7.03;1.95;;;;;;;17.07;67.84;102090.03;10162222;28;20138;-70
2021/09/28 16:46:22;;;;;;;8.00;1.80;;;;;;;16.93;68.41;102085.50;10166016;28;20077;-71
2021/09/28 16:51:21;;;;;;;6.22;1.90;;;;;;;16.81;68.15;102083.41;10147638;28;20054;-70
2021/09/28 16:56:21;;;;;;;5.68;1.27;;;;;;;16.69;68.28;102094.28;10152434;28;20081;-70
2021/09/28 17:01:18;;;;;;;4.38;1.23;;;;;;;16.58;69.76;102096.53;10169871;28;20637;-70
2021/09/28 17:06:15;;;;;;;4.70;1.10;;;;;;;16.46;70.12;102093.63;10168628;28;20042;-71
2021/09/28 17:11:13;;;;;;;4.25;1.13;;;;;;;16.35;70.25;102097.84;10165292;28;20066;-71
2021/09/28 17:16:09;;;;;;;5.00;1.30;;;;;;;16.25;71.10;102098.16;10165077;28;20814;-71
2021/09/28 17:21:06;;;;;;;7.63;1.75;;;;;;;16.14;70.72;102097.66;10165044;28;20129;-70
2021/09/28 17:26:02;;;;;;;5.68;1.70;;;;;;;16.03;71.26;102096.31;10157443;28;20463;-70
2021/09/28 17:30:59;;;;;;;6.97;1.60;;;;;;;15.95;72.21;102095.19;10157884;28;20177;-71
2021/09/28 17:35:56;;;;;;;9.48;2.22;;;;;;;15.85;72.57;102095.47;10150109;28;20447;-71
2021/09/28 17:40:55;;;;;;;4.68;1.80;;;;;;;15.76;72.49;102104.53;10150852;28;20041;-71
2021/09/28 17:45:52;;;;;;;5.95;1.90;;;;;;;15.68;73.21;102108.03;10155386;28;20051;-70
2021/09/28 17:50:49;;;;;;;12.27;2.33;;;;;;;15.62;73.09;102102.97;10176840;28;20113;-70
2021/09/28 18:00:54;;;;;;;7.03;2.00;;;;;;;15.52;74.65;102104.06;10157151;28;20066;-71
2021/09/28 18:05:50;;;;;;;7.03;2.50;;;;;;;15.43;75.22;102105.97;10169912;28;20084;-70
2021/09/28 18:10:47;;;;;;;5.63;2.90;;;;;;;15.36;75.32;102096.25;10155836;28;20042;-69
2021/09/28 18:15:43;;;;;;;6.85;3.42;;;;;;;15.29;74.69;102101.41;10164402;28;20116;-69
2021/09/28 18:20:41;;;;;;;8.88;4.18;;;;;;;15.22;74.63;102095.50;10157157;28;20043;-70
2021/09/28 18:25:38;;;;;;;8.65;4.13;;;;;;;15.16;74.96;102102.28;10165097;28;20045;-70
2021/09/28 18:30:40;;;;;;;8.27;3.30;;;;;;;15.08;75.76;102094.78;10161346;28;20129;-69
2021/09/28 18:35:37;;;;;;;11.73;3.83;;;;;;;15.01;76.34;102088.91;10153610;28;20089;-69
2021/09/28 18:40:46;;;;;;;8.88;3.20;;;;;;;14.96;76.52;102102.81;10158892;28;20108;-70
2021/09/28 18:45:43;;;;;;;8.13;3.40;;;;;;;14.89;76.63;102098.53;10158157;28;20054;-70
2021/09/28 18:50:41;;;;;;;11.52;3.72;;;;;;;14.84;76.97;102101.44;10160548;28;20049;-70
2021/09/28 18:55:43;;;;;;;9.45;3.85;;;;;;;14.80;77.36;102105.94;10135398;28;20504;-70
2021/09/28 19:00:54;;;;;;;8.60;3.87;;;;;;;14.74;77.68;102107.19;10132909;28;20077;-70
2021/09/28 19:06:00;;;;;;;7.63;3.65;;;;;;;14.67;78.04;102104.88;10133813;28;20473;-70
2021/09/28 19:10:58;;;;;;;8.68;4.28;;;;;;;14.61;78.29;102102.56;10157302;28;20446;-70
2021/09/28 19:15:54;;;;;;;7.35;3.25;;;;;;;14.53;78.78;102096.63;10152459;28;20038;-70
2021/09/28 19:21:39;;;;;;;10.18;4.22;;;;;;;14.46;78.92;102099.00;10158452;28;20046;-70
2021/09/28 19:26:10;;;;;;;9.32;3.58;;;;;;;14.41;78.71;102099.13;10155302;28;20062;-71
2021/09/28 19:31:06;;;;;;;9.45;3.55;;;;;;;14.36;79.59;102101.97;10147576;28;20182;-71
2021/09/28 19:36:03;;;;;;;6.45;3.08;;;;;;;14.32;79.58;102106.50;10140631;28;20070;-71
2021/09/28 19:41:01;;;;;;;8.77;3.72;;;;;;;14.24;79.44;102104.44;10164099;28;20097;-70
2021/09/28 19:46:02;;;;;;;8.27;3.58;;;;;;;14.20;79.54;102103.44;10131185;28;20054;-71
2021/09/28 19:51:02;;;;;;;12.48;4.50;;;;;;;14.14;79.62;102101.94;10160843;28;20058;-71
2021/09/28 20:37:51;;;;;;;11.55;4.68;;;;;;;13.71;81.73;102074.78;10163540;28;20108;-67
2021/09/28 20:42:47;;;;;;;17.45;9.52;;;;;;;13.64;82.29;102075.19;10160226;28;20045;-68
2021/09/28 20:47:44;;;;;;;8.18;4.75;;;;;;;13.58;82.38;102066.25;10157158;28;20084;-68
2021/09/28 20:52:40;;;;;;;10.40;4.10;;;;;;;13.53;82.34;102063.59;10162457;28;20515;-68
2021/09/28 20:57:37;;;;;;;11.88;3.97;;;;;;;13.50;82.41;102064.19;10168512;28;20080;-68
2021/09/28 21:02:33;;;;;;;8.20;3.60;;;;;;;13.40;82.60;102050.66;10160071;28;20050;-68
2021/09/28 21:07:30;;;;;;;8.90;4.00;;;;;;;13.32;82.59;102056.84;10170222;28;20049;-68
2021/09/28 21:12:27;;;;;;;7.43;3.70;;;;;;;13.25;82.92;102040.72;10151936;28;20050;-69
2021/09/28 21:17:23;;;;;;;11.60;3.55;;;;;;;13.18;83.03;102035.66;10174795;28;20093;-69
2021/09/28 21:22:20;;;;;;;10.02;3.70;;;;;;;13.11;83.32;102038.00;10165506;28;20081;-68
2021/09/28 21:27:16;;;;;;;10.73;5.03;;;;;;;13.06;83.63;102038.06;10177637;28;20069;-69
2021/09/28 21:32:14;;;;;;;10.57;4.30;;;;;;;13.00;83.26;102033.81;10171234;28;20038;-69
2021/09/28 21:37:10;;;;;;;8.68;3.35;;;;;;;12.92;83.36;102026.25;10176838;28;20715;-69
2021/09/28 21:42:07;;;;;;;7.00;3.22;;;;;;;12.87;83.47;102023.59;10171055;28;20397;-68
2021/09/28 21:47:03;;;;;;;9.15;3.88;;;;;;;12.83;83.98;102035.19;10184538;28;20077;-69
2021/09/28 21:52:00;;;;;;;9.25;3.83;;;;;;;12.75;83.46;102022.13;10168875;28;20050;-69
2021/09/28 21:56:56;;;;;;;7.40;3.55;;;;;;;12.70;83.63;102019.50;10178319;28;20170;-68
2021/09/28 22:01:53;;;;;;;6.88;3.60;;;;;;;12.63;84.29;102008.09;10185572;28;20038;-69
2021/09/28 22:06:50;;;;;;;9.57;3.28;;;;;;;12.56;84.31;102007.66;10170666;28;20474;-68
2021/09/28 22:11:46;;;;;;;6.63;3.60;;;;;;;12.55;84.30;102006.00;10174958;28;20046;-68
2021/09/28 22:16:43;;;;;;;10.40;3.65;;;;;;;12.52;84.26;102001.13;10167699;28;20080;-69
2021/09/28 22:21:42;;;;;;;9.45;3.50;;;;;;;12.47;83.96;101995.75;10161102;28;20496;-68
2021/09/28 22:26:39;;;;;;;8.00;3.45;;;;;;;12.44;84.16;102005.38;10172232;28;20161;-68
2021/09/28 22:31:35;;;;;;;11.82;3.85;;;;;;;12.37;83.88;101999.44;10189883;28;20108;-68
2021/09/28 22:36:32;;;;;;;9.38;3.65;;;;;;;12.32;84.01;102002.28;10174259;28;20061;-68
2021/09/28 22:41:28;;;;;;;6.40;2.83;;;;;;;12.26;84.31;101992.50;10186532;28;20096;-68
2021/09/28 22:46:24;;;;;;;6.45;3.03;;;;;;;12.21;84.28;101990.66;10181104;28;20066;-68
2021/09/28 22:51:21;;;;;;;7.38;2.97;;;;;;;12.15;84.62;101980.88;10163061;28;20049;-68
2021/09/28 22:56:18;;;;;;;9.88;2.97;;;;;;;12.09;84.56;101980.16;10175752;28;20038;-68
2021/09/28 23:01:17;;;;;;;7.28;2.70;;;;;;;12.09;84.89;101979.31;10160501;28;20083;-68
2021/09/28 23:06:15;;;;;;;6.53;2.63;;;;;;;12.07;84.86;101973.31;10155034;28;20139;-68
2021/09/28 23:11:12;;;;;;;7.97;2.60;;;;;;;12.03;84.64;101966.81;10180053;28;20069;-68
2021/09/28 23:16:08;;;;;;;6.97;2.90;;;;;;;11.96;85.14;101957.03;10161347;28;20572;-68
2021/09/28 23:21:05;;;;;;;6.65;2.67;;;;;;;11.94;85.13;101959.25;10174610;28;20042;-69
2021/09/28 23:26:02;;;;;;;9.38;2.63;;;;;;;11.91;85.05;101954.38;10176255;28;20096;-69
2021/09/28 23:30:58;;;;;;;8.55;2.67;;;;;;;11.88;85.40;101944.00;10168286;28;20037;-69
2021/09/28 23:35:55;;;;;;;5.50;2.40;;;;;;;11.85;85.68;101939.06;10165703;28;20046;-71